»·PEaware :: N74KW S59-KSZT

N74KW :: S59-KSZT

FLIGHT INFORMATION

Flight Status: Arrived
Operator: Privately registered:
United States
More flights under this callsign
Pilot: Charles C. (26995)
Aircraft: MCDONNELL-DOUGLAS SKYTRAIN C-47
(DC3)
More flights by this aircraft type
Origin: S59 Libby
United States
Destination: KSZT Sandpoint
United States
More flights between these airports :: More routes between these airports
Route: +EYESE1 EYESE V448 CLASS
File this flight plan on PilotEdge
Remarks:
Altitude:
(Current/Filed)
12,000ft
Speed:
(Current/Filed)
150kts
Departed: 26-Aug-20 12:00 PM
Arrived: 26-Aug-20 12:42 PM
Distance/Time
Traveled:
43nm/0:42
Distance/Time
To Go:
Arrived

Flight Plot

Page will automatically refresh every two minutes.

Flight plan parsing failed; only flown route is shown


Map Options




Map Legend


Flown Route
Filed Route
Departure Airport
Arrival Airport
Navaid (VOR, NDB)
Fix

Horizontal Profiles

Position Reports

Time Latitude Longitude Heading Altitude Ground
Speed
26-Aug-20 11:49 48.285902 -115.489464 254 2599ft 0kts
26-Aug-20 11:50 48.285902 -115.489464 254 2599ft 0kts
26-Aug-20 11:51 48.285902 -115.489464 254 2599ft 0kts
26-Aug-20 11:52 48.285902 -115.489464 254 2599ft 0kts
26-Aug-20 11:53 48.285902 -115.489464 254 2599ft 0kts
26-Aug-20 11:54 48.285902 -115.489464 254 2599ft 0kts
26-Aug-20 11:55 48.287995 -115.490659 347 2593ft 17kts
26-Aug-20 11:56 48.290455 -115.491944 233 2587ft 0kts
26-Aug-20 11:57 48.290455 -115.491944 233 2587ft 0kts
26-Aug-20 11:58 48.290084 -115.492692 164 2587ft 0kts
26-Aug-20 11:59 48.279770 -115.488656 166 2658ft 110kts
26-Aug-20 12:00 48.248896 -115.481014 172 3459ft 113kts
26-Aug-20 12:01 48.218567 -115.470959 164 4181ft 113kts
26-Aug-20 12:02 48.189516 -115.465510 192 5055ft 107kts
26-Aug-20 12:03 48.159737 -115.460646 164 6041ft 108kts
26-Aug-20 12:04 48.131074 -115.446850 161 7055ft 111kts
26-Aug-20 12:05 48.102308 -115.432137 161 7990ft 107kts
26-Aug-20 12:06 48.074008 -115.417619 161 8840ft 108kts
26-Aug-20 12:07 48.044802 -115.402652 161 9575ft 119kts
26-Aug-20 12:08 48.013320 -115.386534 161 10390ft 120kts
26-Aug-20 12:09 47.990638 -115.353047 120 11164ft 121kts
26-Aug-20 12:10 47.966097 -115.324682 210 11724ft 132kts
26-Aug-20 12:11 47.978492 -115.364447 340 12232ft 145kts
26-Aug-20 12:12 48.006437 -115.399364 254 12784ft 143kts
26-Aug-20 12:13 47.991176 -115.453643 250 13342ft 142kts
26-Aug-20 12:14 47.980376 -115.515338 254 12989ft 192kts
26-Aug-20 12:15 47.964916 -115.599701 253 11753ft 213kts
26-Aug-20 12:16 47.950226 -115.677774 252 11999ft 170kts
26-Aug-20 12:17 47.937127 -115.746861 252 11982ft 174kts
26-Aug-20 12:18 47.923900 -115.816408 252 11981ft 174kts
26-Aug-20 12:19 47.910290 -115.887655 252 11531ft 190kts
26-Aug-20 12:20 47.895271 -115.965989 252 10787ft 199kts
26-Aug-20 12:21 47.879895 -116.045843 252 10090ft 200kts
26-Aug-20 12:22 47.864910 -116.123377 252 9642ft 195kts
26-Aug-20 12:23 47.874382 -116.200551 289 9066ft 194kts
26-Aug-20 12:24 47.893534 -116.274130 291 8685ft 189kts
26-Aug-20 12:25 47.913221 -116.346152 291 8446ft 181kts
26-Aug-20 12:26 47.931499 -116.413110 291 8444ft 164kts
26-Aug-20 12:28 47.947701 -116.472628 291 8447ft 147kts
26-Aug-20 12:29 47.968540 -116.528325 302 7888ft 169kts
26-Aug-20 12:30 47.994227 -116.589790 298 7095ft 174kts
26-Aug-20 12:31 48.015487 -116.650214 293 6865ft 153kts
26-Aug-20 12:32 48.038984 -116.700171 307 6886ft 137kts
26-Aug-20 12:33 48.060396 -116.748025 304 6987ft 142kts
26-Aug-20 12:34 48.097611 -116.745323 28 6535ft 151kts
26-Aug-20 12:35 48.131059 -116.718691 36 6160ft 132kts
26-Aug-20 12:36 48.161130 -116.690707 28 5885ft 123kts
26-Aug-20 12:37 48.191121 -116.663412 36 5239ft 126kts
26-Aug-20 12:38 48.218522 -116.637372 33 4948ft 115kts
26-Aug-20 12:39 48.244620 -116.611248 32 4196ft 114kts
26-Aug-20 12:40 48.272449 -116.585549 34 2955ft 109kts
26-Aug-20 12:41 48.295919 -116.563497 27 2137ft 77kts
26-Aug-20 12:42 48.303266 -116.558227 121 2133ft 0kts
26-Aug-20 12:43 48.303266 -116.558228 121 2133ft 0kts
26-Aug-20 12:44 48.303266 -116.558228 121 2133ft 0kts
26-Aug-20 12:44 48.303266 -116.558228 121 2133ft 0kts
26-Aug-20 12:46 48.303266 -116.558228 121 2133ft 0kts
26-Aug-20 12:47 48.303266 -116.558228 121 2133ft 0kts
26-Aug-20 12:47 48.303266 -116.558228 121 2133ft 0kts
26-Aug-20 12:48 48.303266 -116.558228 121 2133ft 0kts
26-Aug-20 12:49 48.303266 -116.558228 121 2133ft 0kts
26-Aug-20 12:50 48.303266 -116.558228 121 2133ft 0kts
26-Aug-20 12:52 48.303266 -116.558228 121 2133ft 0kts
26-Aug-20 12:52 48.303266 -116.558228 121 2133ft 0kts
26-Aug-20 12:53 48.303266 -116.558228 121 2133ft 0kts
26-Aug-20 12:54 48.303266 -116.558228 121 2133ft 0kts
26-Aug-20 12:55 48.303266 -116.558228 121 2133ft 0kts
26-Aug-20 12:56 48.303266 -116.558228 121 2133ft 0kts

Navigation Log

Ident Type
Flight plan parsing failed, navigation log unavailable